Aviation Digital Data Service (ADDS)

Output produced by METARs form (1903 UTC 18 June 2019)
found at http://www.aviationweather.gov/metar/data/
 
CYYC 181800Z 04009KT 15SM SCT026 BKN073 18/11 A2994 RMK CU4AC1 CB TOP SW SLP140 DENSITY ALT 4800FT
TAF CYYC 181750Z 1818/1918 35012KT P6SM BKN020 
     BECMG 1818/1820 BKN025 
     FM182000 01012KT P6SM BKN030 
     TEMPO 1820/1822 P6SM -SHRA 
     PROB30 1820/1822 VRB15G25KT 5SM TSRA BKN030CB 
     FM182200 10008KT P6SM VCSH BKN030 
     TEMPO 1822/1903 VRB20G30KT 4SM TSRA BKN025CB 
     PROB40 1822/1902 VRB25G40KT 11/2SM TSRAGR BKN020CB 
     FM190300 10008KT P6SM BKN040 
     TEMPO 1903/1908 P6SM -SHRA 
     FM190800 15010KT 5SM -SHRA BR VCTS SCT006 OVC012CB 
     FM191200 27008KT P6SM BKN010 OVC080 
     FM191500 33022G32KT P6SM BKN020 RMK NXT FCST BY 182100Z
       
CYBW 181857Z AUTO 07008KT 030V100 9SM BKN026 OVC085 18/11 A2994 RMK LTNG DIST S SLP143 DENSITY ALT 5100FT
TAF CYBW 181750Z 1818/1904 06012KT P6SM BKN025 
     BECMG 1818/1819 BKN020 
     FM182000 01012KT P6SM VCSH BKN025 
     TEMPO 1820/1821 VRB15G25KT 5SM TSRA BKN025CB 
     FM182100 10008KT P6SM VCSH BKN030 
     TEMPO 1821/1903 VRB20G30KT 4SM TSRA BKN025CB 
     PROB40 1821/1902 VRB25G40KT 11/2SM TSRAGR BKN020CB 
     FM190300 10008KT P6SM BKN040 
     TEMPO 1903/1904 P6SM -SHRA RMK FCST BASED ON AUTO OBS. NXT FCST BY 190000Z
       
CYEG 181800Z 33008KT 260V360 20SM FEW026 BKN120 BKN200 18/12 A2988 RMK CU2AC3CI1 SLP119 DENSITY ALT 3400FT
TAF CYEG 181750Z 1818/1918 30010KT P6SM BKN025 
     TEMPO 1818/1819 BKN020 
     BECMG 1820/1821 BKN040 
     FM182100 33012KT P6SM SCT050 BKN250 
     TEMPO 1821/1824 BKN050 BKN250 
     FM190000 33010KT P6SM BKN060 
     TEMPO 1902/1904 P6SM -SHRA 
     BECMG 1905/1907 VRB03KT 
     FM191000 35012G22KT P6SM -RA BKN012 OVC030 
     TEMPO 1911/1914 4SM SHRA BR BKN012 
     FM191400 35012G22KT 6SM -RA BR SCT008 OVC012 
     TEMPO 1914/1917 4SM RA BR BKN008 RMK NXT FCST BY 182100Z
       
CZVL 181800Z AUTO 31008KT 9SM SCT027 SCT032 BKN042 BKN130 18/12 A2987 RMK SLP115 DENSITY ALT 3100FT
TAF CZVL 181750Z 1818/1906 30010KT P6SM BKN025 
     TEMPO 1818/1819 BKN020 
     BECMG 1820/1821 BKN040 
     FM182100 33012KT P6SM SCT050 BKN250 
     TEMPO 1821/1824 BKN050 BKN250 
     FM190000 33010KT P6SM BKN060 
     TEMPO 1902/1904 P6SM -SHRA 
     BECMG 1905/1906 VRB03KT RMK FCST BASED ON AUTO OBS. NXT FCST BY 190000Z
       
CYET 181800Z AUTO 33004KT 260V030 9SM CLR 18/10 A2989 RMK SLP118 DENSITY ALT 4100FT
CYPY 181800Z AUTO 21011G17KT 150V250 9SM CLR 28/11 A2966 RMK SLP047 DENSITY ALT 2600FT
TAF CYPY 181738Z 1818/1906 19008KT P6SM FEW080 
     FM182200 20010KT P6SM SCT060 BKN080 
     TEMPO 1822/1903 P6SM -SHRA BKN060 
     PROB30 1822/1903 VRB20G30KT 4SM TSRA BKN060CB 
     FM190300 22007KT P6SM SCT070 BKN100 RMK FCST BASED ON AUTO OBS. NXT FCST BY
190000Z
       
CYMM 181800Z AUTO 20012G21KT 9SM FEW090 27/07 A2973 RMK SLP070 DENSITY ALT 3000FT
TAF CYMM 181838Z 1819/1907 20012G22KT P6SM SCT090 
     FM182000 20012KT P6SM BKN070 
     TEMPO 1820/1823 25020G30KT P6SM -SHRA VCTS BKN050CB 
     FM190000 23006KT P6SM BKN100 
     FM190200 21005KT P6SM FEW120 BKN200 RMK FCST BASED ON AUTO OBS. NXT FCST BY
190100Z
       
CYQU 181800Z 24025G33KT 25SM FEW055 SCT220 17/03 A2985 RMK CU1CI2 SLP117 DENSITY ALT 3100FT
TAF CYQU 181838Z 1819/1907 24025G35KT P6SM FEW060 
     TEMPO 1822/1901 BKN060 
     FM190200 26018G28KT P6SM SCT070 
     FM190400 26012G22KT P6SM SKC RMK NXT FCST BY 190100Z
       
CYOJ 181800Z 15012G18KT 1/2SM FU VV019 21/13 A2959 RMK FU8 SLP024 DENSITY ALT 2500FT
TAF CYOJ 181838Z 1819/1907 15010G20KT 2SM FU SCT020 BKN100 
     TEMPO 1819/1821 1/2SM FU VV020 
     FM182100 13010KT 5SM FU SCT040 
     TEMPO 1821/1902 VRB15G25KT 11/2SM -TSRA FU BKN030CB 
     BECMG 1823/1901 26006KT 
     FM190200 25008KT 5SM FU BKN040 
     TEMPO 1902/1905 P6SM -SHRA 
     FM190500 23005KT 5SM -RA FU OVC025 
     TEMPO 1905/1907 2SM -RA FU OVC020 RMK NXT FCST BY 190100Z
       
CYQL 181800Z 01017G24KT 25SM FEW048TCU SCT085 BKN300 22/10 A2989 RMK TCU1AC3CI1 SLP119 DENSITY ALT 4700FT
TAF CYQL 181750Z 1818/1906 34015G25KT P6SM SCT050 SCT100 
     TEMPO 1819/1822 P6SM -SHRA VCTS BKN050CB 
     FM182200 32010KT P6SM BKN060 
     PROB30 1822/1903 VRB20G35KT 3SM TSRA BKN060CB 
     FM190300 15008KT P6SM VCSH BKN060 RMK NXT FCST BY 190000Z
       
CYLL 181800Z 17014G19KT 130V190 15SM FEW050 FEW095 FEW280 23/10 A2984 RMK CU1AC1CI1 CU TR CI TR SLP109 DENSITY ALT 3700FT
TAF CYLL 181750Z 1818/1906 14012G22KT P6SM SCT050 
     FM182000 16010KT P6SM BKN070 
     TEMPO 1820/1903 P6SM -SHRA VCTS BKN050CB 
     BECMG 1822/1824 31010KT 
     FM190500 31006KT P6SM FEW070 BKN200 RMK NXT FCST BY 190000Z
       
CYXH 181800Z CCA 23015KT 30SM -SHRA FEW048TCU OVC120 23/11 A2983 RMK TCU2AC6 SLP096 DENSITY ALT 3900FT
TAF CYXH 181750Z 1818/1906 21015KT P6SM SCT060 BKN130 
     TEMPO 1818/1824 P6SM -SHRA VCTS BKN060CB 
     BECMG 1818/1820 25010KT 
     FM190000 33010KT P6SM SCT100 RMK NXT FCST BY 190000Z
       
CYPE 181800Z 23018G25KT 15SM BKN055 18/06 A2976 RMK CU5 SLP086 DENSITY ALT 2900FT
TAF CYPE 181838Z 1819/1907 23018G28KT P6SM BKN060 
     TEMPO 1821/1902 SCT060 
     FM190200 23015G25KT P6SM SCT080 
     BECMG 1905/1907 25012KT RMK NXT FCST BY 190100Z
       
CZPC 181807Z AUTO /////KT 9SM SCT055 BKN065 BKN092 OVC120 17/12 A2994 RMK WND MISG SLP133 DENSITY ALT 4900FT
CYQF 181800Z 35004KT 270V050 15SM BKN030 BKN270 18/11 A2991 RMK CU5CI2 SLP136 DENSITY ALT 4000FT
TAF CYQF 181750Z 1818/1906 36012KT P6SM BKN012 
     BECMG 1818/1820 BKN025 
     FM182100 02008KT P6SM SCT040 
     TEMPO 1821/1905 BKN040 
     FM190500 15008KT P6SM BKN040 RMK NXT FCST BY 190000Z
       
CYZH 181800Z AUTO 29014G19KT 9SM SCT095 18/08 A2983 RMK SLP106 DENSITY ALT 2700FT
TAF CYZH 181838Z 1819/1907 29015G25KT P6SM SCT050 
     FM190200 27010KT P6SM SKC 
     BECMG 1905/1907 25005KT RMK FCST BASED ON AUTO OBS. NXT FCST BY 190100Z
       
CYZU 181800Z 34004KT 260V020 15SM BKN031TCU BKN110 18/10 A2988 RMK TCU5AC1 SLP119 DENSITY ALT 3600FT
TAF CYZU 181838Z 1819/1823 34005KT P6SM BKN030 
     TEMPO 1820/1821 P6SM -SHRA 
     BECMG 1820/1821 30012G22KT 
     FM182100 30012G22KT P6SM SCT050 
     TEMPO 1821/1823 P6SM VCTS SCT050CB BKN250 RMK NXT FCST WILL BE ISSUED AT
191415Z
       
CYXX 181800Z 23010KT 180V250 15SM BKN035 19/11 A3019 RMK CU7 SLP226 DENSITY ALT 400FT
TAF CYXX 181738Z 1818/1918 20012KT P6SM BKN030 
     TEMPO 1818/1821 BKN020 
     FM182100 21015KT P6SM SCT050 
     TEMPO 1821/1903 BKN050 
     FM190300 19015KT P6SM BKN050 
     BECMG 1904/1906 19008KT 
     FM190900 19008KT P6SM SCT020 BKN050 
     TEMPO 1909/1915 P6SM -SHRA BKN020 OVC040 
     FM191500 20012KT P6SM BKN025 RMK NXT FCST BY 190000Z
       
CBBC 181800Z AUTO 25007KT 200V280 9SM FEW021 SCT049 OVC060 14/09 A3025 RMK SLP246
TAF CBBC 181838Z 1819/1905 25008KT P6SM SCT015 SCT050 OVC060 
     TEMPO 1819/1824 5SM -SHRA BR BKN015 OVC050 
     FM190000 23006KT P6SM -SHRA SCT007 OVC020 
     TEMPO 1900/1905 2SM SHRA BR BKN007 OVC012 RMK FCST BASED ON AUTO OBS. NXT
FCST BY 190100Z
       
CYBD 181800Z 25014KT 15SM FEW056 SCT064TCU BKN070 16/07 A3020 RMK SC1TCU3AC2 SC TR SLP228
CYCP 181800Z 20008KT 170V240 15SM SCT090TCU 21/05 A2997 RMK TCU4 SLP147 DENSITY ALT 3500FT
CYBL 181800Z 31016G22KT 30SM FEW035 SCT270 19/06 A3019 RMK CU1CI2 SLP223 DENSITY ALT 600FT
TAF CYBL 181838Z 1819/1904 31012G22KT P6SM FEW030 SCT270 RMK NXT FCST BY 190100Z
       
CYCG 181800Z VRB05KT 15SM FEW060 BKN250 26/09 A2992 RMK CU2CI3 SLP125 DENSITY ALT 3300FT
TAF CYCG 181838Z 1819/1904 VRB03KT P6SM SCT070 
     TEMPO 1819/1823 BKN070 
     FM182300 22008KT P6SM SCT100 RMK NXT FCST BY 190100Z
       
CYCQ 181800Z CCA 26019G32KT 35SM FEW045 FEW060 FEW110 FEW220 16/04 A2981 RMK SC1CU1AC1CI1 SC TR AC TR CI TR DIST PCPN W SLP106 DENSITY ALT 2800FT
CYXC 181800Z 18004KT 080V190 25SM FEW070 FEW120 23/11 A2989 RMK CU1AC1 AC TR SLP107 DENSITY ALT 4800FT
TAF CYXC 181838Z 1819/1907 VRB03KT P6SM FEW070 SCT120 
     FM182000 14007KT P6SM SCT070 
     TEMPO 1820/1824 P6SM -SHRA VCTS BKN070CB 
     FM190000 16008KT P6SM FEW040 SCT100 
     BECMG 1904/1906 19006KT RMK NXT FCST BY 190100Z
       
CYDQ 181800Z AUTO 22025G31KT 9SM CLR 17/03 A2978 RMK SLP091 DENSITY ALT 3000FT
TAF CYDQ 181838Z 1819/1905 22022G32KT P6SM SKC 
     FM182100 26022G32KT P6SM SCT070 
     TEMPO 1821/1905 P6SM VCTS BKN070CB RMK FCST BASED ON AUTO OBS. NXT FCST BY
190100Z
       
CYDL 181800Z AUTO 21007KT 180V250 9SM BKN070 BKN083 10/04 A2990 RMK SLP132
TAF CYDL 181738Z 1818/1902 22008KT P6SM FEW040 OVC070 
     TEMPO 1818/1902 P6SM -SHRA BKN040 OVC070 
     BECMG 1818/1820 22010G20KT RMK FCST BASED ON AUTO OBS. NXT FCST BY 190000Z
       
CYYE 181822Z 31016G22KT 12SM SCT090TCU BKN120 18/08 A2964 RMK TCU4AC3 SLP046 DENSITY ALT 2300FT
TAF CYYE 181838Z 1819/1907 29012G22KT P6SM FEW020 SCT080 BKN120 
     TEMPO 1819/1822 P6SM -SHRA SCT020 BKN080 
     FM182200 27012KT P6SM -SHRA SCT020 BKN050 
     TEMPO 1822/1907 6SM -SHRA VCTS BR BKN020CB OVC050 RMK NXT FCST BY 190100Z
       
CYXJ 181800Z 22023G30KT 60SM SCT054 BKN076 BKN230 18/05 A2975 RMK CU4AC1CI1 CI TR SLP080 DENSITY ALT 3400FT
TAF CYXJ 181838Z 1819/1907 24020G30KT P6SM BKN060 
     FM182100 24022G32KT P6SM SCT070 
     TEMPO 1821/1903 P6SM VCTS BKN070CB 
     FM190300 26015G25KT P6SM BKN080 RMK NXT FCST BY 190100Z
       
CYGE 181853Z VRB02KT 20SM SCT070TCU BKN100 BKN150 22/08 A2991 RMK TCU4AC1AC1 TCU ALQDS SLP121 DENSITY ALT 4000FT
CYKA 181800Z 28012KT 40SM SCT095 BKN270 25/06 A2996 RMK CU3CI2 SLP144 DENSITY ALT 2600FT
TAF CYKA 181838Z 1819/1907 28010KT P6SM SCT090 BKN240 
     FM182200 26008KT P6SM SCT090 
     TEMPO 1822/1904 P6SM -SHRA BKN090 
     BECMG 1823/1901 22010KT 
     FM190400 22010KT P6SM SCT080 RMK NXT FCST BY 190100Z
       
CYLW 181800Z AUTO VRB02KT 9SM BKN070 OVC096 25/08 A2998 RMK SLP146 DENSITY ALT 2700FT
TAF CYLW 181838Z 1819/1907 VRB03KT P6SM SCT070 BKN100 
     TEMPO 1819/1822 BKN070 OVC090 
     FM182200 20008KT P6SM SCT090 
     BECMG 1823/1901 21015G25KT 
     FM190500 18008KT P6SM SKC RMK FCST BASED ON AUTO OBS. NXT FCST BY 190100Z
       
CYZY 181847Z AUTO 23016G23KT 9SM SCT050 BKN080 14/03 A2992 RMK SLP146 DENSITY ALT 2600FT
TAF CYZY 181838Z 1819/1907 22012G22KT P6SM SCT040 OVC090 
     TEMPO 1819/1907 P6SM -SHRA BKN040 OVC090 
     BECMG 1904/1906 23008KT RMK FCST BASED ON AUTO OBS. NXT FCST BY 190100Z
       
CZMT 181800Z 19005KT 10SM -SHRA BKN015TCU BKN040 OVC060 11/10 A3015 RMK TCU5SC2SC1 SLP210
TAF CZMT 181838Z 1819/1824 19008KT P6SM -SHRA SCT008 SCT015 BKN040 
     TEMPO 1819/1824 3SM -SHRA BR BKN008 OVC015 RMK NXT FCST WILL BE ISSUED AT
191415Z
       
CYCD 181800Z 04010G15KT 340V070 30SM BKN052 BKN250 20/09 A3017 RMK CU5CI1 SLP218 DENSITY ALT 500FT
TAF CYCD 181738Z 1818/1904 36012G22KT P6SM SCT020 BKN050 
     TEMPO 1818/1821 BKN020 BKN040 
     FM182100 02008KT P6SM SCT050 
     TEMPO 1821/1904 BKN050 
     BECMG 1901/1903 VRB03KT RMK NXT FCST BY 190000Z
       
CYYF 181800Z 03009KT 15SM SCT090 SCT150 SCT250 26/08 A2997 RMK CU3AC1CI1 AC TR SLP144 DENSITY ALT 2600FT
TAF CYYF 181838Z 1819/1907 02008KT P6SM SCT090 SCT150 
     TEMPO 1819/1822 BKN080 BKN150 
     FM182200 34012KT P6SM FEW090 SCT150 RMK NXT FCST BY 190100Z
       
CYZT 181800Z 33007KT 300V010 20SM FEW030 BKN042 BKN220 16/09 A3028 RMK CU2SC3CI1 SLP257
TAF CYZT 181838Z 1819/1907 33012KT P6SM FEW030 BKN040 BKN220 
     FM190200 31012KT P6SM SCT015 BKN030 
     TEMPO 1902/1907 P6SM -SHRA BKN015 BKN030 RMK NXT FCST BY 190100Z
       
CYPW 181800Z 29015KT 30SM FEW033 FEW220 FEW250 18/09 A3018 RMK CU1CS1CI1 CU TR CS TR CI TR SLP222 DENSITY ALT 600FT
CYXS 181800Z AUTO 26012G21KT 9SM SCT060 SCT073 14/03 A3004 RMK SLP181 DENSITY ALT 2500FT
TAF CYXS 181838Z 1819/1907 24012G22KT P6SM SCT060 
     FM182100 22012G22KT P6SM BKN060 
     TEMPO 1821/1907 P6SM VCTS BKN060CB RMK FCST BASED ON AUTO OBS. NXT FCST BY
190100Z
       
CYPR 181826Z AUTO 16005KT 9SM -RA SCT017 OVC032 11/10 A3016 RMK SLP215
TAF CYPR 181838Z 1819/1907 16007KT P6SM -SHRA FEW007 SCT015 OVC030 
     TEMPO 1819/1907 3SM SHRA BR SCT007 BKN015 OVC030 RMK FCST BASED ON AUTO
OBS. NXT FCST BY 190100Z
       
CYDC 181800Z 30007G17KT 240V350 25SM FEW047 SCT059 BKN065 BKN280 20/05 A3006 RMK CF1CU2CU4CI1 CI TR SLP169 DENSITY ALT 3300FT
CYQZ 181800Z AUTO 30007KT 260V360 9SM BKN070 17/02 A3006 RMK SLP186 DENSITY ALT 2300FT
TAF CYQZ 181838Z 1819/1906 33008KT P6SM SCT070 
     TEMPO 1819/1906 P6SM -SHRA VCTS BKN050CB 
     BECMG 1822/1824 32010G20KT RMK FCST BASED ON AUTO OBS. NXT FCST BY 190100Z
       
CYRV 181800Z AUTO 17007KT 9SM SCT070 BKN110 21/12 A2993 RMK SLP133 DENSITY ALT 2500FT
CYZP 181813Z AUTO 23006KT 9SM BKN065 OVC078 12/08 A3017 RMK SLP218
TAF CYZP 181838Z 1819/1907 23006KT P6SM -SHRA FEW020 BKN060 
     TEMPO 1819/1903 4SM -SHRA BR BKN020 BKN040 
     BECMG 1819/1821 23013KT 
     FM190300 26010KT P6SM SCT020 BKN040 
     TEMPO 1903/1907 P6SM -SHRA BKN020 BKN040 RMK FCST BASED ON AUTO OBS. NXT
FCST BY 190100Z
       
CYYD 181800Z VRB05KT 25SM BKN065 BKN100 BKN140 13/05 A3005 RMK CU5AC1AC1 SLP184 DENSITY ALT 1800FT
TAF CYYD 181838Z 1819/1906 VRB03KT P6SM BKN060 
     TEMPO 1819/1906 P6SM -SHRA VCTS BKN060CB 
     BECMG 1820/1822 30008KT RMK NXT FCST BY 190100Z
       
CZST 181800Z VRB02KT 12SM -RA FEW018 BKN025 OVC055 11/08 A3011 RMK SC2SC3SC3 SLP196
CYXT 181812Z 25003KT 200V280 15SM -SHRA FEW008 FEW020 SCT038TCU OVC060 11/08 A3014 RMK CF1CU2TCU2SC4 CF TR SLP213
TAF CYXT 181838Z 1819/1907 23008KT P6SM FEW020 BKN050 
     TEMPO 1819/1821 P6SM -SHRA BKN020 
     FM182100 18010G20KT P6SM SCT020 BKN050 
     TEMPO 1821/1907 P6SM -SHRA VCTS BKN020CB OVC050 RMK NXT FCST BY 190100Z
       
CYAZ 181800Z 25006KT 160V280 15SM FEW022 SCT120 BKN220 17/12 A3022 RMK SC2AC2CI2 SLP234 DENSITY ALT 100FT
TAF CYAZ 181738Z 1818/1901 31008KT P6SM SCT020 BKN120 BKN220 
     BECMG 1818/1820 29017G27KT RMK NXT FCST WILL BE ISSUED AT 191445Z
       
CYVR 181800Z 28018KT 30SM FEW047 FEW070 BKN250 20/12 A3017 RMK CU1AC1CS4 AC TR CONTRAILS SLP218 DENSITY ALT 300FT
TAF CYVR 181738Z 1818/1924 29015G25KT P6SM FEW030 SCT070 
     BECMG 1820/1822 25010KT 
     FM190300 26008KT P6SM BKN070 
     BECMG 1907/1909 10008KT 
     FM191100 09008KT P6SM SCT015 BKN060 
     BECMG 1913/1915 27015G25KT 
     FM191600 28018G28KT P6SM SCT050 
     FM192100 24012KT P6SM BKN050 RMK NXT FCST BY 182100Z
       
CYYJ 181800Z 12007KT 20SM FEW035 BKN050 BKN070 BKN240 19/10 A3019 RMK SC1SC5AC1CI1 AC TR SLP224 DENSITY ALT 300FT
TAF CYYJ 181738Z 1818/1918 24006KT P6SM BKN050 
     TEMPO 1818/1822 SCT050 
     BECMG 1819/1821 12008KT 
     FM182200 12008KT P6SM FEW050 
     BECMG 1823/1901 25012KT 
     FM190600 28010KT P6SM FEW050 
     FM191500 24006KT P6SM BKN050 RMK NXT FCST BY 190000Z
       
CYWL 181800Z 28006G16KT 250V310 15SM SCT055 BKN230 15/03 A3007 RMK CU4CI1 SLP183 DENSITY ALT 3700FT
TAF CYWL 181838Z 1819/1907 28008KT P6SM SCT060 
     FM182100 31008KT P6SM BKN060 
     TEMPO 1821/1907 P6SM -SHRA VCTS BKN040CB OVC060 RMK NXT FCST BY 190100Z